Time;durP1;ratioP1;P1;durP2;ratioP2;P2;SDS_P1;SDS_P2;PMS_P1;PMS_P2;Temp;Humidity;BMP_temperature;BMP_pressure;BME280_temperature;BME280_humidity;BME280_pressure;Samples;Min_cycle;Max_cycle;Signal;HPM_P1;HPM_P2
2023/10/11 00:00:35;;;;;;;25.60;7.60;;;;;;;1.79;100.00;100040.31;5160073;27;20051;-59
2023/10/11 00:03:06;;;;;;;12.52;7.53;;;;;;;1.79;100.00;100032.19;5160521;27;20078;-61
2023/10/11 00:05:39;;;;;;;13.70;7.78;;;;;;;1.86;100.00;100037.25;5159850;27;20447;-62
2023/10/11 00:08:07;;;;;;;14.90;7.20;;;;;;;1.91;100.00;100031.03;5160133;27;20047;-61
2023/10/11 00:10:34;;;;;;;15.23;7.63;;;;;;;2.06;100.00;100028.13;5159899;27;20476;-59
2023/10/11 00:12:59;;;;;;;12.23;7.70;;;;;;;2.13;100.00;100020.47;5159929;27;20051;-60
2023/10/11 00:15:28;;;;;;;15.23;7.00;;;;;;;2.28;100.00;100019.50;5160167;27;20418;-60
2023/10/11 00:17:55;;;;;;;13.05;7.13;;;;;;;2.32;100.00;100026.75;5159852;27;20050;-59
2023/10/11 00:20:28;;;;;;;14.38;7.90;;;;;;;2.44;100.00;100028.25;5160103;27;20199;-59
2023/10/11 00:22:55;;;;;;;13.00;6.20;;;;;;;2.52;100.00;100035.72;5159869;27;20064;-60
2023/10/11 00:25:23;;;;;;;11.35;7.35;;;;;;;2.63;100.00;100037.19;5160078;27;20284;-59
2023/10/11 00:27:49;;;;;;;14.35;7.45;;;;;;;2.66;100.00;100028.50;5159584;27;20043;-60
2023/10/11 00:30:17;;;;;;;13.43;6.47;;;;;;;2.72;100.00;100027.34;5160099;27;20296;-60
2023/10/11 00:32:44;;;;;;;17.15;7.07;;;;;;;2.83;100.00;100020.72;5159594;27;20046;-59
2023/10/11 00:35:18;;;;;;;10.80;6.70;;;;;;;2.83;100.00;100023.41;5159752;27;20046;-58
2023/10/11 00:37:44;;;;;;;11.45;6.30;;;;;;;2.98;100.00;100025.09;5159655;27;20068;-59
2023/10/11 00:40:14;;;;;;;10.25;6.53;;;;;;;3.08;100.00;100031.47;5159469;27;20047;-59
2023/10/11 00:42:40;;;;;;;13.30;7.40;;;;;;;3.05;100.00;100043.69;5159613;27;20050;-59
2023/10/11 00:45:08;;;;;;;9.93;6.18;;;;;;;3.16;100.00;100036.19;5159421;27;20046;-60
2023/10/11 00:47:40;;;;;;;12.05;5.93;;;;;;;3.16;100.00;100036.19;5159047;27;20361;-59
2023/10/11 00:50:08;;;;;;;18.25;7.05;;;;;;;3.08;100.00;100036.88;5159285;27;20050;-58
2023/10/11 00:52:35;;;;;;;11.85;6.65;;;;;;;3.26;100.00;100036.03;5159581;27;20050;-60
2023/10/11 00:55:07;;;;;;;10.65;5.47;;;;;;;3.35;100.00;100030.78;5159136;27;20198;-59
2023/10/11 00:57:33;;;;;;;14.70;6.13;;;;;;;3.29;100.00;100035.47;5159104;27;20137;-59
2023/10/11 00:59:59;;;;;;;12.57;5.90;;;;;;;3.34;100.00;100038.09;5159632;27;20057;-59
2023/10/11 01:02:27;;;;;;;12.45;6.32;;;;;;;3.24;100.00;100039.06;5159233;27;20050;-59
2023/10/11 01:04:53;;;;;;;14.82;6.88;;;;;;;3.33;100.00;100041.88;5159314;27;20110;-59
2023/10/11 01:07:20;;;;;;;12.25;6.90;;;;;;;3.24;100.00;100035.56;5159083;27;20069;-60
2023/10/11 01:09:47;;;;;;;11.82;6.15;;;;;;;3.18;100.00;100040.22;5159293;27;20047;-60
2023/10/11 01:12:13;;;;;;;13.00;6.40;;;;;;;3.35;100.00;100042.41;5158921;27;20043;-60
2023/10/11 01:14:56;;;;;;;10.88;5.45;;;;;;;3.26;100.00;100039.56;5159309;27;20051;-57
2023/10/11 01:17:23;;;;;;;12.15;5.85;;;;;;;3.45;100.00;100034.13;5158982;27;20416;-59
2023/10/11 01:19:51;;;;;;;13.32;6.50;;;;;;;3.41;100.00;100033.09;5159255;27;20050;-59
2023/10/11 01:22:18;;;;;;;15.10;6.43;;;;;;;3.25;100.00;100032.53;5159052;27;20078;-61
2023/10/11 01:24:44;;;;;;;12.32;6.03;;;;;;;3.47;100.00;100042.78;5158865;27;20064;-59
2023/10/11 01:27:13;;;;;;;11.38;6.97;;;;;;;3.29;100.00;100025.41;5158963;27;20047;-59
2023/10/11 01:29:40;;;;;;;11.40;6.18;;;;;;;3.41;100.00;100037.72;5158795;27;20042;-60
2023/10/11 01:32:06;;;;;;;8.98;5.68;;;;;;;3.21;100.00;100036.94;5159013;27;20137;-59
2023/10/11 01:34:32;;;;;;;13.63;6.20;;;;;;;3.41;100.00;100033.09;5158641;27;20050;-59
2023/10/11 01:36:58;;;;;;;13.68;6.55;;;;;;;3.33;100.00;100036.47;5158938;27;20042;-60
2023/10/11 01:39:25;;;;;;;15.20;7.43;;;;;;;3.52;100.00;100044.59;5158466;27;20153;-59
2023/10/11 01:41:54;;;;;;;14.07;6.30;;;;;;;3.40;100.00;100042.34;5158824;27;20141;-61
2023/10/11 01:44:22;;;;;;;10.70;6.63;;;;;;;3.61;100.00;100042.81;5158399;27;20051;-60
2023/10/11 01:46:48;;;;;;;14.80;6.55;;;;;;;3.47;100.00;100039.25;5158838;27;20051;-60
2023/10/11 01:49:14;;;;;;;14.55;6.97;;;;;;;3.63;100.00;100042.50;5158603;27;20047;-58
2023/10/11 01:51:46;;;;;;;13.63;6.55;;;;;;;3.63;100.00;100046.03;5158157;27;20050;-60
2023/10/11 01:54:15;;;;;;;13.68;6.50;;;;;;;3.65;100.00;100035.69;5158519;27;20050;-60
2023/10/11 01:56:41;;;;;;;11.93;6.15;;;;;;;3.62;100.00;100035.47;5158388;27;20122;-60
2023/10/11 01:59:11;;;;;;;16.35;6.53;;;;;;;3.54;100.00;100042.38;5157165;27;20053;-60
2023/10/11 02:01:41;;;;;;;13.63;6.72;;;;;;;3.56;100.00;100036.66;5158253;27;20051;-60
2023/10/11 02:04:11;;;;;;;12.43;6.28;;;;;;;3.54;100.00;100039.69;5158509;27;20046;-59
2023/10/11 02:06:38;;;;;;;21.73;6.18;;;;;;;3.36;100.00;100041.31;5157934;27;20051;-60
2023/10/11 02:09:04;;;;;;;17.42;7.35;;;;;;;3.48;100.00;100038.16;5158540;27;20357;-59
2023/10/11 02:11:30;;;;;;;10.38;6.50;;;;;;;3.38;100.00;100039.13;5157843;27;20056;-59
2023/10/11 02:13:58;;;;;;;13.43;6.57;;;;;;;3.43;100.00;100040.94;5158418;27;20050;-60
2023/10/11 02:16:24;;;;;;;13.80;6.70;;;;;;;3.37;100.00;100042.94;5158235;27;20064;-59
2023/10/11 02:18:51;;;;;;;16.25;7.65;;;;;;;3.22;100.00;100029.59;5158101;27;20141;-59
2023/10/11 02:21:17;;;;;;;21.33;7.55;;;;;;;3.16;100.00;100041.63;5158020;27;20046;-59
2023/10/11 02:23:44;;;;;;;13.73;7.50;;;;;;;3.17;100.00;100035.13;5158060;27;20047;-59
2023/10/11 02:26:12;;;;;;;13.05;7.32;;;;;;;3.20;100.00;100034.50;5158204;27;20057;-59
2023/10/11 02:28:39;;;;;;;21.65;6.95;;;;;;;3.24;100.00;100022.00;5157940;27;20122;-58
2023/10/11 02:31:05;;;;;;;12.65;6.68;;;;;;;3.29;100.00;100032.75;5158198;27;20097;-59
2023/10/11 02:33:32;;;;;;;15.70;7.43;;;;;;;3.09;100.00;100024.94;5157604;27;20480;-58
2023/10/11 02:36:08;;;;;;;15.00;6.63;;;;;;;3.12;100.00;100029.75;5158118;27;20405;-60
2023/10/11 02:38:38;;;;;;;14.35;6.85;;;;;;;3.09;100.00;100020.31;5157530;27;20050;-61
2023/10/11 02:41:04;;;;;;;13.05;7.18;;;;;;;2.95;100.00;100022.97;5157805;27;20047;-59
2023/10/11 02:43:33;;;;;;;20.58;6.68;;;;;;;2.71;100.00;100014.91;5157895;27;20290;-59
2023/10/11 02:45:59;;;;;;;15.57;7.22;;;;;;;2.93;100.00;100018.94;5157756;27;20047;-60
2023/10/11 02:48:27;;;;;;;16.35;7.40;;;;;;;2.85;100.00;100016.88;5157699;27;20404;-58
2023/10/11 02:50:55;;;;;;;12.80;6.72;;;;;;;2.74;100.00;100005.41;5157513;27;20453;-58
2023/10/11 02:53:21;;;;;;;16.60;7.82;;;;;;;2.85;100.00;99998.72;5157796;27;20324;-60
2023/10/11 02:55:47;;;;;;;10.98;6.93;;;;;;;2.89;100.00;99994.34;5157522;27;20141;-60
2023/10/11 02:58:21;;;;;;;17.77;7.68;;;;;;;2.75;100.00;99996.16;5157883;27;20157;-60
2023/10/11 03:00:47;;;;;;;14.85;7.95;;;;;;;2.71;100.00;99995.94;5157412;27;20089;-60
2023/10/11 03:03:15;;;;;;;14.88;7.82;;;;;;;2.63;100.00;99988.47;5158090;27;20054;-57
2023/10/11 03:05:42;;;;;;;13.38;7.72;;;;;;;2.62;100.00;99986.88;5157301;27;20047;-59
2023/10/11 03:08:13;;;;;;;16.73;7.53;;;;;;;2.66;100.00;99985.19;5157536;27;20050;-59
2023/10/11 03:10:43;;;;;;;15.65;7.78;;;;;;;2.58;100.00;99980.44;5158811;27;20142;-60
2023/10/11 03:13:10;;;;;;;14.93;7.55;;;;;;;2.52;100.00;99974.28;5160890;27;20054;-59
2023/10/11 03:15:38;;;;;;;16.40;8.10;;;;;;;2.49;100.00;99971.34;5161181;27;20043;-58
2023/10/11 03:18:06;;;;;;;13.07;7.70;;;;;;;2.48;100.00;99965.13;5161129;27;20050;-60
2023/10/11 03:20:36;;;;;;;16.48;8.07;;;;;;;2.45;100.00;99963.00;5161161;27;20047;-60
2023/10/11 03:23:10;;;;;;;20.45;9.15;;;;;;;2.17;100.00;99962.03;5160759;27;20067;-61
2023/10/11 03:25:38;;;;;;;18.48;8.30;;;;;;;2.40;100.00;99957.69;5161134;27;20342;-60
2023/10/11 03:28:05;;;;;;;13.68;7.85;;;;;;;2.38;100.00;99932.78;5160552;27;20046;-61
2023/10/11 03:30:35;;;;;;;16.00;8.60;;;;;;;2.58;100.00;99932.50;5161061;27;20103;-60
2023/10/11 03:33:02;;;;;;;19.38;9.30;;;;;;;2.43;100.00;99932.72;5160967;27;20043;-59
2023/10/11 03:35:33;;;;;;;19.17;8.63;;;;;;;2.38;100.00;99934.69;5160724;27;20070;-58
2023/10/11 03:37:59;;;;;;;17.00;9.23;;;;;;;2.55;100.00;99935.00;5160777;27;20328;-60
2023/10/11 03:40:34;;;;;;;21.80;9.27;;;;;;;2.72;100.00;99931.78;5160520;27;20074;-59
2023/10/11 03:43:02;;;;;;;20.40;9.93;;;;;;;2.75;100.00;99937.41;5160784;27;20063;-59
2023/10/11 03:45:29;;;;;;;16.63;9.43;;;;;;;2.24;100.00;99927.31;5160361;27;20439;-59
2023/10/11 03:47:58;;;;;;;20.38;10.18;;;;;;;2.07;100.00;99922.38;5160581;27;20054;-58
2023/10/11 03:50:32;;;;;;;24.55;12.25;;;;;;;2.04;100.00;99903.22;5160293;27;20105;-56
2023/10/11 03:53:06;;;;;;;17.48;11.07;;;;;;;2.47;100.00;99881.53;5160563;27;20463;-58
2023/10/11 03:55:33;;;;;;;25.42;12.20;;;;;;;2.45;100.00;99889.94;5160451;27;20047;-60
2023/10/11 03:57:59;;;;;;;30.10;13.10;;;;;;;1.90;100.00;99886.91;5160350;27;20381;-59
2023/10/11 04:00:25;;;;;;;22.95;13.02;;;;;;;2.34;100.00;99859.50;5160645;27;20061;-60
2023/10/11 04:02:56;;;;;;;22.23;13.80;;;;;;;2.05;100.00;99858.84;5160216;27;20059;-60
2023/10/11 04:05:22;;;;;;;29.50;14.35;;;;;;;2.42;100.00;99859.94;5160389;27;20108;-59
2023/10/11 04:07:48;;;;;;;38.65;15.98;;;;;;;2.47;100.00;99847.16;5159950;27;20408;-59
2023/10/11 04:10:32;;;;;;;29.17;13.35;;;;;;;2.51;100.00;99860.91;5160112;27;20138;-59
2023/10/11 04:12:59;;;;;;;35.60;15.43;;;;;;;2.66;100.00;99874.19;5159894;27;20061;-58
2023/10/11 04:15:30;;;;;;;26.75;14.40;;;;;;;2.55;100.00;99883.56;5160337;27;20042;-58
2023/10/11 04:17:56;;;;;;;30.63;13.70;;;;;;;2.53;100.00;99891.16;5160092;27;20046;-59
2023/10/11 04:20:29;;;;;;;25.67;12.77;;;;;;;2.80;100.00;99904.84;5160010;27;20050;-58
2023/10/11 04:23:01;;;;;;;25.63;13.82;;;;;;;2.73;100.00;99923.38;5158758;27;20412;-61
2023/10/11 04:25:32;;;;;;;26.20;12.85;;;;;;;2.70;100.00;99923.13;5159840;27;20074;-58
2023/10/11 04:28:01;;;;;;;28.33;13.88;;;;;;;2.68;100.00;99938.88;5160075;27;20309;-58
2023/10/11 04:30:40;;;;;;;28.80;13.10;;;;;;;2.78;100.00;99936.81;5159655;27;20077;-59
2023/10/11 04:33:10;;;;;;;27.55;13.13;;;;;;;2.81;100.00;99938.94;5159906;27;20050;-60
2023/10/11 04:35:36;;;;;;;22.80;13.45;;;;;;;2.88;100.00;99943.97;5159467;27;20138;-58
2023/10/11 04:38:04;;;;;;;28.30;12.85;;;;;;;2.95;100.00;99954.44;5159704;27;20054;-60
2023/10/11 04:40:41;;;;;;;23.17;12.93;;;;;;;2.91;100.00;99962.34;5159675;27;20047;-62
2023/10/11 04:43:20;;;;;;;21.75;11.65;;;;;;;2.62;100.00;99956.28;5159528;27;20093;-58
2023/10/11 04:45:47;;;;;;;27.17;13.57;;;;;;;2.86;100.00;99961.63;5159538;27;20089;-59
2023/10/11 04:48:15;;;;;;;28.42;13.23;;;;;;;2.95;100.00;99965.28;5159281;27;20207;-57
2023/10/11 04:50:45;;;;;;;24.52;12.27;;;;;;;2.99;100.00;99966.28;5159513;27;20042;-59
2023/10/11 04:53:17;;;;;;;22.67;12.70;;;;;;;2.85;100.00;99960.03;5159089;27;20062;-59
2023/10/11 04:55:46;;;;;;;26.02;12.90;;;;;;;3.04;100.00;99968.94;5159031;27;20146;-57
2023/10/11 04:58:38;;;;;;;24.52;13.05;;;;;;;3.11;100.00;99965.84;5158948;27;20420;-58
2023/10/11 05:01:02;;;;;;;29.65;12.30;;;;;;;3.10;100.00;99962.34;5158899;27;20170;-63
2023/10/11 05:03:30;;;;;;;23.48;11.80;;;;;;;3.03;100.00;99961.88;5158997;27;20050;-59
2023/10/11 05:05:58;;;;;;;23.98;12.30;;;;;;;3.23;100.00;99950.75;5158887;27;20047;-61
2023/10/11 05:08:50;;;;;;;23.52;11.68;;;;;;;3.15;100.00;99946.00;5159219;27;20133;-58
2023/10/11 05:11:25;;;;;;;21.67;11.75;;;;;;;3.24;100.00;99944.22;5158484;27;20047;-57
2023/10/11 05:13:59;;;;;;;18.05;10.35;;;;;;;3.27;100.00;99946.34;5159194;27;20106;-57
2023/10/11 05:16:25;;;;;;;17.20;8.43;;;;;;;3.04;100.00;99933.72;5154111;27;20142;-54
2023/10/11 05:18:51;;;;;;;23.98;9.75;;;;;;;3.43;100.00;99927.91;5157663;27;20059;-53
2023/10/11 05:21:26;;;;;;;19.27;10.23;;;;;;;3.35;100.00;99933.19;5150243;27;20099;-55
2023/10/11 05:24:13;;;;;;;18.75;8.80;;;;;;;3.57;100.00;99927.13;5137732;27;20455;-53
2023/10/11 05:26:47;;;;;;;21.75;10.07;;;;;;;3.80;100.00;99899.00;5157384;27;20061;-57
2023/10/11 05:29:24;;;;;;;13.85;8.20;;;;;;;3.67;100.00;99886.25;5158684;27;20047;-54
2023/10/11 05:32:19;;;;;;;15.35;8.23;;;;;;;3.90;100.00;99863.53;5158729;27;20046;-56
2023/10/11 05:35:06;;;;;;;15.40;7.47;;;;;;;4.01;100.00;99835.09;5157700;27;20053;-53
2023/10/11 05:51:13;;;;;;;10.43;5.32;;;;;;;6.71;100.00;98983.47;5137469;28;20103;-59
2023/10/11 05:53:40;;;;;;;33.00;14.32;;;;;;;6.95;100.00;98672.72;5139990;27;20405;-56
2023/10/11 05:56:08;;;;;;;14.70;6.68;;;;;;;6.42;100.00;98557.03;5157871;27;20130;-55
2023/10/11 05:58:34;;;;;;;24.05;7.38;;;;;;;7.50;100.00;98520.88;5158314;27;20107;-55
2023/10/11 06:01:06;;;;;;;21.98;6.97;;;;;;;7.38;100.00;98531.91;5157946;27;20050;-58
2023/10/11 06:03:35;;;;;;;15.05;7.10;;;;;;;7.17;100.00;98539.66;5158155;27;20427;-61
2023/10/11 06:06:10;;;;;;;8.30;6.03;;;;;;;6.76;100.00;98556.28;5157973;27;20051;-57
2023/10/11 06:08:38;;;;;;;14.95;5.90;;;;;;;7.90;100.00;98568.00;5158091;27;20055;-57
2023/10/11 06:11:08;;;;;;;14.63;5.97;;;;;;;8.11;100.00;98654.97;5158281;27;20340;-59
2023/10/11 06:13:34;;;;;;;12.15;6.10;;;;;;;9.02;100.00;98771.03;5158066;27;20347;-57
2023/10/11 06:16:03;;;;;;;6.80;5.10;;;;;;;9.95;100.00;98890.25;5158072;27;20085;-57
2023/10/11 06:18:55;;;;;;;11.32;5.20;;;;;;;9.75;100.00;98945.06;5157887;27;20051;-62
2023/10/11 06:21:30;;;;;;;9.70;5.10;;;;;;;9.32;100.00;98968.91;5158323;27;20084;-54
2023/10/11 06:23:56;;;;;;;13.98;5.38;;;;;;;10.10;100.00;98972.28;5157435;27;20062;-60
2023/10/11 06:26:28;;;;;;;21.17;5.65;;;;;;;9.87;100.00;99018.81;5157949;27;20051;-54
2023/10/11 06:29:03;;;;;;;15.05;6.18;;;;;;;10.05;100.00;99038.31;5158165;27;20061;-61
2023/10/11 06:31:33;;;;;;;31.52;8.15;;;;;;;9.40;100.00;99024.56;5157628;27;20149;-59
2023/10/11 06:34:03;;;;;;;24.38;7.90;;;;;;;8.97;100.00;98957.25;5157623;27;20089;-54
2023/10/11 06:36:30;;;;;;;11.38;7.22;;;;;;;8.82;100.00;98935.06;5157695;27;20047;-60
2023/10/11 06:38:57;;;;;;;16.75;7.18;;;;;;;8.95;100.00;98916.59;5158004;27;20046;-57
2023/10/11 06:41:50;;;;;;;13.02;6.55;;;;;;;9.42;100.00;98948.38;5157485;27;20073;-58
2023/10/11 06:44:18;;;;;;;18.52;7.07;;;;;;;8.85;100.00;98915.22;5157381;27;20046;-58
2023/10/11 06:46:50;;;;;;;8.85;4.75;;;;;;;9.15;100.00;98950.97;5160642;27;20061;-54
2023/10/11 06:49:16;;;;;;;11.65;5.78;;;;;;;9.10;100.00;98925.88;5161154;27;20043;-57
2023/10/11 06:51:42;;;;;;;24.00;5.95;;;;;;;9.29;100.00;98945.00;5161377;27;20145;-63
2023/10/11 06:54:09;;;;;;;11.38;5.13;;;;;;;9.56;100.00;98967.81;5160628;27;20042;-63
2023/10/11 06:56:38;;;;;;;9.75;4.93;;;;;;;9.03;100.00;98955.81;5161103;27;20142;-58
2023/10/11 06:59:04;;;;;;;15.82;5.18;;;;;;;9.19;100.00;98934.63;5160354;27;20054;-61
2023/10/11 07:01:35;;;;;;;11.60;5.97;;;;;;;9.49;100.00;98934.03;5160516;27;20058;-62
2023/10/11 07:04:02;;;;;;;9.25;4.80;;;;;;;8.90;100.00;98955.16;5160628;27;20389;-57
2023/10/11 07:06:29;;;;;;;15.63;5.18;;;;;;;8.36;100.00;98920.38;5161121;27;20106;-58
2023/10/11 07:08:58;;;;;;;24.63;5.88;;;;;;;8.71;100.00;98918.44;5160397;27;20343;-59
2023/10/11 07:11:40;;;;;;;9.85;4.90;;;;;;;8.92;100.00;98888.03;5160398;27;20074;-58
2023/10/11 07:14:14;;;;;;;16.23;5.50;;;;;;;8.66;100.00;98893.34;5160893;27;20050;-58
2023/10/11 07:16:42;;;;;;;23.02;5.85;;;;;;;8.42;100.00;98865.13;5160526;27;20141;-61
2023/10/11 07:19:11;;;;;;;10.23;4.90;;;;;;;8.30;100.00;98835.22;5160693;27;20053;-59
2023/10/11 07:21:52;;;;;;;11.40;4.82;;;;;;;8.52;100.00;98838.41;5160487;27;20050;-57
2023/10/11 07:24:31;;;;;;;15.90;5.70;;;;;;;10.52;100.00;98839.03;5160901;27;20046;-53
2023/10/11 07:26:57;;;;;;;12.52;5.28;;;;;;;10.11;100.00;98940.19;5160090;27;20466;-56
2023/10/11 07:29:23;;;;;;;7.35;4.50;;;;;;;9.65;100.00;98945.66;5160499;27;20054;-62
2023/10/11 07:31:50;;;;;;;10.05;4.63;;;;;;;10.04;100.00;98943.59;5160320;27;20047;-59
2023/10/11 07:34:18;;;;;;;12.90;5.50;;;;;;;9.68;100.00;98923.03;5160281;27;20055;-53
2023/10/11 07:36:45;;;;;;;10.20;5.15;;;;;;;9.97;100.00;98927.06;5160088;27;20404;-59
2023/10/11 07:39:15;;;;;;;12.40;5.13;;;;;;;10.26;100.00;98911.09;5160308;27;20161;-63
2023/10/11 07:41:42;;;;;;;6.80;4.60;;;;;;;10.10;100.00;98947.63;5160617;27;20357;-60
2023/10/11 07:44:10;;;;;;;7.55;4.57;;;;;;;10.04;100.00;98934.59;5160029;27;20054;-56
2023/10/11 07:46:37;;;;;;;8.80;4.93;;;;;;;10.10;100.00;98919.44;5160597;27;20047;-61
2023/10/11 07:49:03;;;;;;;12.48;4.57;;;;;;;9.93;100.00;98936.34;5159710;27;20046;-58
2023/10/11 07:51:30;;;;;;;6.82;4.35;;;;;;;9.65;100.00;98921.81;5160285;27;20073;-64
2023/10/11 07:53:57;;;;;;;11.50;4.88;;;;;;;10.12;100.00;98922.59;5159625;27;20054;-59
2023/10/11 07:56:22;;;;;;;9.55;4.70;;;;;;;9.82;100.00;98917.81;5158974;27;20055;-59
2023/10/11 07:58:49;;;;;;;11.15;4.90;;;;;;;10.12;100.00;98917.13;5159816;27;20093;-55
2023/10/11 08:01:24;;;;;;;13.05;5.55;;;;;;;10.06;100.00;98915.84;5159996;27;20130;-58
2023/10/11 08:03:51;;;;;;;12.27;5.35;;;;;;;9.83;100.00;98915.84;5159762;27;20117;-63
2023/10/11 08:06:24;;;;;;;10.52;4.88;;;;;;;10.10;100.00;98892.06;5160090;27;20050;-59
2023/10/11 08:08:51;;;;;;;14.13;5.93;;;;;;;10.40;100.00;98896.81;5160142;27;20133;-61
2023/10/11 08:11:19;;;;;;;14.02;5.15;;;;;;;10.14;100.00;98892.91;5159498;27;20057;-60
2023/10/11 08:13:47;;;;;;;10.40;5.57;;;;;;;10.07;100.00;98885.34;5160022;27;20400;-52
2023/10/11 08:16:17;;;;;;;14.80;5.47;;;;;;;10.21;100.00;98893.00;5159539;27;20146;-63
2023/10/11 08:18:44;;;;;;;14.45;5.60;;;;;;;10.24;100.00;98881.31;5159612;27;20055;-61
2023/10/11 08:21:10;;;;;;;11.52;5.40;;;;;;;10.19;100.00;98854.22;5159899;27;20133;-58
2023/10/11 08:23:42;;;;;;;16.88;5.57;;;;;;;10.10;100.00;98870.16;5160040;27;20145;-57
2023/10/11 08:26:14;;;;;;;12.52;7.95;;;;;;;10.05;100.00;98873.19;5160100;27;20057;-64
2023/10/11 08:28:47;;;;;;;20.40;7.15;;;;;;;11.26;100.00;98893.16;5138978;28;20043;-60
2023/10/11 08:31:15;;;;;;;15.80;5.33;;;;;;;10.54;100.00;98894.28;5139104;28;20130;-58
2023/10/11 08:33:41;;;;;;;17.65;5.57;;;;;;;10.50;100.00;98887.97;5138850;28;20304;-57
2023/10/11 08:36:10;;;;;;;43.03;5.88;;;;;;;10.22;100.00;98904.75;5140429;27;20047;-55
2023/10/11 08:38:36;;;;;;;16.92;5.22;;;;;;;10.60;100.00;98903.75;5159001;27;20142;-57
2023/10/11 08:41:06;;;;;;;12.32;6.38;;;;;;;10.44;100.00;98889.44;5159743;27;20047;-56
2023/10/11 08:43:35;;;;;;;12.70;5.05;;;;;;;10.75;100.00;98888.28;5159150;27;20145;-58
2023/10/11 08:46:05;;;;;;;20.23;5.32;;;;;;;9.85;100.00;98886.97;5159429;27;20074;-62
2023/10/11 08:48:38;;;;;;;13.57;5.03;;;;;;;9.89;100.00;98889.75;5159374;27;20091;-62
2023/10/11 08:51:10;;;;;;;7.95;4.65;;;;;;;10.32;100.00;98880.25;5159167;27;20103;-58
2023/10/11 08:53:38;;;;;;;9.95;5.57;;;;;;;10.68;100.00;98907.38;5159365;27;20054;-57
2023/10/11 08:56:04;;;;;;;14.88;5.45;;;;;;;11.22;100.00;98900.56;5158741;27;20154;-55
2023/10/11 08:58:30;;;;;;;20.95;5.00;;;;;;;11.83;100.00;98943.19;5159264;27;20099;-55
2023/10/11 09:00:58;;;;;;;10.05;4.90;;;;;;;11.98;100.00;98961.38;5158827;27;20078;-56
2023/10/11 09:03:26;;;;;;;17.33;5.63;;;;;;;12.18;100.00;98934.47;5159598;27;20051;-55
2023/10/11 09:05:58;;;;;;;19.02;5.03;;;;;;;12.64;100.00;98938.69;5159099;27;20058;-57
2023/10/11 09:08:27;;;;;;;10.65;4.55;;;;;;;12.22;100.00;98945.47;5158279;27;20328;-56
2023/10/11 09:11:06;;;;;;;11.20;4.68;;;;;;;11.94;100.00;98938.59;5158763;27;20324;-57
2023/10/11 09:13:37;;;;;;;12.23;4.20;;;;;;;11.97;100.00;98932.34;5158712;27;20051;-62
2023/10/11 09:16:12;;;;;;;21.20;5.00;;;;;;;13.10;100.00;98930.69;5159154;27;20507;-59
2023/10/11 09:18:38;;;;;;;9.27;4.60;;;;;;;11.95;100.00;98925.63;5158846;27;20137;-56
2023/10/11 09:21:15;;;;;;;12.07;4.47;;;;;;;11.89;100.00;98908.69;5159289;27;20109;-53
2023/10/11 09:23:46;;;;;;;8.40;3.45;;;;;;;11.66;100.00;98888.84;5159183;27;20046;-61
2023/10/11 09:26:20;;;;;;;7.75;4.53;;;;;;;11.61;100.00;98870.00;5158693;27;20092;-58
2023/10/11 09:28:56;;;;;;;13.45;4.22;;;;;;;11.94;100.00;98863.63;5159085;27;20080;-58
2023/10/11 09:31:23;;;;;;;14.98;5.55;;;;;;;12.15;100.00;98874.75;5158623;27;20042;-61
2023/10/11 09:33:51;;;;;;;12.98;4.25;;;;;;;12.12;100.00;98891.22;5159023;27;20058;-53
2023/10/11 09:36:20;;;;;;;10.02;4.03;;;;;;;12.71;100.00;98889.22;5158570;27;20078;-58
2023/10/11 09:38:54;;;;;;;12.27;4.32;;;;;;;13.00;100.00;98894.88;5158927;27;20293;-60
2023/10/11 09:41:23;;;;;;;11.30;4.28;;;;;;;12.63;100.00;98893.91;5158568;27;20061;-56
2023/10/11 09:43:49;;;;;;;20.27;4.18;;;;;;;13.08;100.00;98864.22;5158908;27;20145;-55
2023/10/11 09:46:17;;;;;;;9.80;3.88;;;;;;;12.85;100.00;98872.78;5158329;27;20043;-57
2023/10/11 09:48:43;;;;;;;8.35;3.75;;;;;;;13.88;100.00;98874.97;5158459;27;20051;-55
2023/10/11 09:51:14;;;;;;;9.65;4.13;;;;;;;12.60;100.00;98853.44;5158204;27;20059;-63
2023/10/11 09:53:42;;;;;;;7.55;3.67;;;;;;;12.94;100.00;98842.16;5157623;27;20423;-59
2023/10/11 09:56:17;;;;;;;7.22;4.43;;;;;;;12.95;100.00;98832.72;5158293;27;20051;-60
2023/10/11 09:58:49;;;;;;;22.65;4.35;;;;;;;12.63;100.00;98807.88;5158094;27;20134;-61
2023/10/11 10:01:20;;;;;;;8.68;3.65;;;;;;;13.12;100.00;98809.97;5158363;27;20050;-57
2023/10/11 10:03:47;;;;;;;9.40;3.72;;;;;;;12.57;100.00;98809.41;5157809;27;20054;-57
2023/10/11 10:06:18;;;;;;;26.40;4.82;;;;;;;12.55;100.00;98809.78;5158068;27;20494;-56
2023/10/11 10:08:47;;;;;;;11.23;4.15;;;;;;;12.54;100.00;98807.44;5157672;27;20138;-61
2023/10/11 10:11:14;;;;;;;11.32;6.07;;;;;;;12.41;100.00;98807.78;5157949;27;20078;-61
2023/10/11 10:14:02;;;;;;;18.15;6.00;;;;;;;12.45;100.00;98802.28;5157737;27;20137;-57
2023/10/11 10:17:05;;;;;;;7.32;3.75;;;;;;;12.73;100.00;98796.13;5157434;27;20069;-53
2023/10/11 10:19:39;;;;;;;9.60;3.45;;;;;;;12.62;100.00;98776.81;5156848;27;20122;-60
2023/10/11 10:22:14;;;;;;;;;;;;;;;12.71;100.00;98790.22;5157938;27;20043;-55
2023/10/11 10:24:41;;;;;;;13.93;3.85;;;;;;;12.59;100.00;98787.81;5157874;27;19923;-56
2023/10/11 10:27:38;;;;;;;5.85;3.85;;;;;;;13.12;100.00;98795.41;5157911;27;20050;-59
2023/10/11 10:30:06;;;;;;;9.07;4.28;;;;;;;13.31;100.00;98794.28;5157639;27;20055;-60
2023/10/11 10:32:32;;;;;;;12.73;4.50;;;;;;;13.00;100.00;98790.31;5157940;27;20134;-60
2023/10/11 10:35:36;;;;;;;10.13;5.15;;;;;;;13.21;100.00;98771.06;5157480;27;20335;-55
2023/10/11 10:38:05;;;;;;;20.08;3.88;;;;;;;13.07;100.00;98766.31;5141079;27;20058;-56
2023/10/11 10:40:30;;;;;;;11.00;4.63;;;;;;;12.77;100.00;98771.38;5157116;27;20047;-61
2023/10/11 10:43:23;;;;;;;12.10;4.47;;;;;;;12.99;100.00;98761.19;5157237;27;20146;-60
2023/10/11 10:45:50;;;;;;;9.30;6.90;;;;;;;12.98;100.00;98754.91;5157704;27;20141;-57
2023/10/11 10:48:18;;;;;;;27.55;8.90;;;;;;;12.75;100.00;98733.25;5157380;27;20062;-56
2023/10/11 10:50:50;;;;;;;11.60;5.07;;;;;;;13.59;100.00;98727.41;5157684;27;20495;-58
2023/10/11 10:53:16;;;;;;;11.43;5.18;;;;;;;13.53;100.00;98738.06;5157431;27;20050;-59
2023/10/11 10:55:42;;;;;;;10.93;5.10;;;;;;;13.50;100.00;98716.81;5157604;27;20289;-57
2023/10/11 10:58:15;;;;;;;7.53;4.63;;;;;;;13.41;100.00;98714.44;5157114;27;20051;-60
2023/10/11 11:00:43;;;;;;;9.00;5.32;;;;;;;12.90;100.00;98660.56;5157376;27;20058;-60
2023/10/11 11:03:19;;;;;;;12.32;6.50;;;;;;;13.51;100.00;98676.28;5157363;27;20043;-61
2023/10/11 11:05:57;;;;;;;13.35;4.22;;;;;;;13.01;100.00;98688.09;5157308;27;20371;-61
2023/10/11 11:08:27;;;;;;;15.07;5.28;;;;;;;13.09;100.00;98670.38;5157182;27;20180;-60
2023/10/11 11:10:54;;;;;;;9.57;4.95;;;;;;;12.33;100.00;98615.72;5156760;27;20430;-57
2023/10/11 11:13:21;;;;;;;8.80;4.97;;;;;;;13.09;100.00;98598.84;5157242;27;20060;-57
2023/10/11 11:15:55;;;;;;;10.40;5.85;;;;;;;12.71;100.00;98554.47;5157059;27;20046;-61
2023/10/11 11:18:31;;;;;;;22.80;6.65;;;;;;;12.93;100.00;98546.22;5157428;27;20057;-60
2023/10/11 11:20:59;;;;;;;17.15;5.90;;;;;;;12.99;100.00;98557.59;5157055;27;20046;-58
2023/10/11 11:23:27;;;;;;;18.27;6.40;;;;;;;13.33;100.00;98555.97;5156846;27;20487;-61
2023/10/11 11:25:54;;;;;;;11.70;6.43;;;;;;;12.80;100.00;98512.81;5157074;27;20046;-58
2023/10/11 11:28:24;;;;;;;12.70;6.10;;;;;;;12.93;100.00;98497.47;5156845;27;20046;-63
2023/10/11 11:31:13;;;;;;;13.35;6.13;;;;;;;13.30;100.00;98493.47;5157359;27;20055;-63
2023/10/11 11:33:48;;;;;;;12.70;5.95;;;;;;;13.25;100.00;98484.81;5153451;27;20427;-57
2023/10/11 11:36:30;;;;;;;13.98;6.55;;;;;;;12.39;100.00;98457.47;5160414;27;20077;-58
2023/10/11 11:38:56;;;;;;;12.40;6.47;;;;;;;12.51;100.00;98429.59;5159795;27;20046;-58
2023/10/11 11:41:22;;;;;;;13.70;6.47;;;;;;;13.10;100.00;98431.78;5160026;27;20138;-60
2023/10/11 11:43:48;;;;;;;13.43;6.13;;;;;;;13.53;100.00;98472.88;5160264;27;20058;-62
2023/10/11 11:46:15;;;;;;;13.45;6.57;;;;;;;13.59;100.00;98502.34;5160187;27;20058;-61